NKS1952 KFLL-KJAX
Flight info
| Callsign | NKS1952 |
|---|---|
| Flight time | 0h 55m |
| Altitude | 30000 |
| Route | FRSBE2 STYMY ORL/N0443F310 HAINY QUBEN1 |
| Aircraft | A20N/M-SDE2E3FGHIRWXY/LB1 |
Departure
| Time | 2026-05-03 23:07 |
|---|---|
| Airport | Fort Lauderdale Hollywood International Airport (KFLL) |
Arrival
| Time | 2026-05-04 00:03 |
|---|---|
| Airport | Jacksonville International Airport (KJAX) |
| Time | Latitude | Longitude | Altitude | Speed | Heading |
|---|---|---|---|---|---|
| 2026-05-03 21:41 | 26.07124 | -80.14755 | 23 ft | 0 kts | 115° |
| 2026-05-03 21:41 | 26.07123 | -80.14755 | 23 ft | 0 kts | 125° |
| 2026-05-03 21:55 | 26.07129 | -80.14764 | 22 ft | 2 kts | 126° |
| 2026-05-03 21:55 | 26.07139 | -80.14779 | 26 ft | 2 kts | 130° |
| 2026-05-03 21:56 | 26.07150 | -80.14793 | 26 ft | 2 kts | 155° |
| 2026-05-03 21:56 | 26.07165 | -80.14795 | 25 ft | 2 kts | 193° |
| 2026-05-03 21:56 | 26.07181 | -80.14789 | 23 ft | 2 kts | 212° |
| 2026-05-03 21:56 | 26.07190 | -80.14782 | 22 ft | 1 kts | 221° |
| 2026-05-03 21:57 | 26.07191 | -80.14781 | 21 ft | 0 kts | 223° |
| 2026-05-03 22:01 | 26.07190 | -80.14781 | 21 ft | 0 kts | 223° |
| 2026-05-03 22:02 | 26.07184 | -80.14799 | 23 ft | 7 kts | 258° |
| 2026-05-03 22:02 | 26.07243 | -80.14853 | 19 ft | 13 kts | 356° |
| 2026-05-03 22:02 | 26.07274 | -80.14854 | 19 ft | 0 kts | 359° |
| 2026-05-03 22:03 | 26.07275 | -80.14855 | 19 ft | 0 kts | 350° |
| 2026-05-03 22:03 | 26.07282 | -80.14855 | 19 ft | 0 kts | 0° |
| 2026-05-03 22:12 | 26.07304 | -80.14854 | 19 ft | 6 kts | 1° |
| 2026-05-03 22:12 | 26.07367 | -80.14876 | 16 ft | 13 kts | 305° |
| 2026-05-03 22:12 | 26.07423 | -80.14971 | 15 ft | 16 kts | 316° |
| 2026-05-03 22:13 | 26.07489 | -80.15073 | 14 ft | 17 kts | 274° |
| 2026-05-03 22:13 | 26.07490 | -80.15218 | 12 ft | 20 kts | 271° |
| 2026-05-03 22:13 | 26.07491 | -80.15384 | 10 ft | 23 kts | 271° |
| 2026-05-03 22:13 | 26.07492 | -80.15538 | 13 ft | 17 kts | 270° |
| 2026-05-03 22:14 | 26.07493 | -80.15637 | 14 ft | 7 kts | 270° |
| 2026-05-03 22:14 | 26.07493 | -80.15641 | 14 ft | 0 kts | 270° |
| 2026-05-03 22:14 | 26.07493 | -80.15642 | 14 ft | 1 kts | 270° |
| 2026-05-03 22:14 | 26.07493 | -80.15650 | 14 ft | 0 kts | 270° |
| 2026-05-03 22:15 | 26.07493 | -80.15651 | 14 ft | 1 kts | 270° |
| 2026-05-03 22:16 | 26.07493 | -80.15680 | 14 ft | 9 kts | 270° |
| 2026-05-03 22:16 | 26.07493 | -80.15769 | 14 ft | 10 kts | 270° |
| 2026-05-03 22:16 | 26.07493 | -80.15790 | 14 ft | 0 kts | 270° |
| 2026-05-03 22:18 | 26.07493 | -80.15791 | 14 ft | 1 kts | 270° |
| 2026-05-03 22:19 | 26.07494 | -80.15808 | 14 ft | 3 kts | 270° |
| 2026-05-03 22:19 | 26.07494 | -80.15810 | 14 ft | 0 kts | 270° |
| 2026-05-03 22:21 | 26.07494 | -80.15822 | 14 ft | 3 kts | 270° |
| 2026-05-03 22:21 | 26.07494 | -80.15854 | 15 ft | 5 kts | 270° |
| 2026-05-03 22:21 | 26.07494 | -80.15892 | 15 ft | 0 kts | 270° |
| 2026-05-03 22:22 | 26.07494 | -80.15897 | 16 ft | 2 kts | 270° |
| 2026-05-03 22:22 | 26.07494 | -80.15917 | 16 ft | 3 kts | 270° |
| 2026-05-03 22:23 | 26.07494 | -80.15930 | 16 ft | 0 kts | 270° |
| 2026-05-03 22:26 | 26.07494 | -80.15936 | 16 ft | 1 kts | 270° |
| 2026-05-03 22:26 | 26.07494 | -80.15951 | 17 ft | 3 kts | 270° |
| 2026-05-03 22:26 | 26.07494 | -80.15974 | 18 ft | 3 kts | 270° |
| 2026-05-03 22:26 | 26.07494 | -80.15980 | 18 ft | 0 kts | 270° |
| 2026-05-03 22:27 | 26.07494 | -80.15981 | 18 ft | 1 kts | 270° |
| 2026-05-03 22:27 | 26.07495 | -80.15991 | 18 ft | 2 kts | 271° |
| 2026-05-03 22:27 | 26.07495 | -80.16012 | 18 ft | 3 kts | 270° |
| 2026-05-03 22:27 | 26.07495 | -80.16021 | 19 ft | 0 kts | 270° |
| 2026-05-03 22:32 | 26.07495 | -80.16035 | 19 ft | 5 kts | 270° |
| 2026-05-03 22:32 | 26.07495 | -80.16082 | 20 ft | 3 kts | 270° |
| 2026-05-03 22:33 | 26.07495 | -80.16083 | 20 ft | 0 kts | 270° |
| 2026-05-03 22:35 | 26.07495 | -80.16090 | 20 ft | 2 kts | 270° |
| 2026-05-03 22:35 | 26.07495 | -80.16106 | 20 ft | 4 kts | 270° |
| 2026-05-03 22:36 | 26.07496 | -80.16131 | 20 ft | 0 kts | 270° |
| 2026-05-03 22:39 | 26.07496 | -80.16140 | 20 ft | 3 kts | 270° |
| 2026-05-03 22:39 | 26.07496 | -80.16177 | 19 ft | 6 kts | 270° |
| 2026-05-03 22:39 | 26.07496 | -80.16188 | 19 ft | 0 kts | 270° |
| 2026-05-03 22:40 | 26.07496 | -80.16191 | 19 ft | 1 kts | 270° |
| 2026-05-03 22:40 | 26.07496 | -80.16209 | 19 ft | 4 kts | 270° |
| 2026-05-03 22:40 | 26.07496 | -80.16267 | 18 ft | 8 kts | 270° |
| 2026-05-03 22:41 | 26.07496 | -80.16301 | 18 ft | 0 kts | 270° |
| 2026-05-03 22:45 | 26.07496 | -80.16302 | 18 ft | 1 kts | 270° |
| 2026-05-03 22:45 | 26.07496 | -80.16325 | 18 ft | 2 kts | 270° |
| 2026-05-03 22:45 | 26.07496 | -80.16329 | 18 ft | 0 kts | 270° |
| 2026-05-03 22:49 | 26.07496 | -80.16331 | 18 ft | 1 kts | 270° |
| 2026-05-03 22:49 | 26.07496 | -80.16345 | 18 ft | 4 kts | 270° |
| 2026-05-03 22:50 | 26.07497 | -80.16437 | 18 ft | 0 kts | 270° |
| 2026-05-03 22:50 | 26.07497 | -80.16441 | 18 ft | 2 kts | 270° |
| 2026-05-03 22:50 | 26.07497 | -80.16466 | 18 ft | 5 kts | 270° |
| 2026-05-03 22:51 | 26.07497 | -80.16484 | 19 ft | 0 kts | 270° |
| 2026-05-03 22:55 | 26.07497 | -80.16490 | 19 ft | 2 kts | 270° |
| 2026-05-03 22:55 | 26.07497 | -80.16518 | 19 ft | 5 kts | 270° |
| 2026-05-03 22:55 | 26.07497 | -80.16543 | 19 ft | 1 kts | 270° |
| 2026-05-03 22:56 | 26.07497 | -80.16557 | 18 ft | 2 kts | 270° |
| 2026-05-03 22:56 | 26.07497 | -80.16565 | 18 ft | 0 kts | 270° |
| 2026-05-03 22:59 | 26.07498 | -80.16584 | 18 ft | 5 kts | 271° |
| 2026-05-03 22:59 | 26.07507 | -80.16622 | 19 ft | 3 kts | 304° |
| 2026-05-03 22:59 | 26.07510 | -80.16626 | 19 ft | 0 kts | 311° |
| 2026-05-03 23:00 | 26.07524 | -80.16638 | 18 ft | 5 kts | 329° |
| 2026-05-03 23:00 | 26.07549 | -80.16643 | 17 ft | 2 kts | 357° |
| 2026-05-03 23:00 | 26.07551 | -80.16643 | 16 ft | 0 kts | 358° |
| 2026-05-03 23:04 | 26.07557 | -80.16643 | 16 ft | 3 kts | 358° |
| 2026-05-03 23:04 | 26.07587 | -80.16643 | 17 ft | 2 kts | 0° |
| 2026-05-03 23:04 | 26.07588 | -80.16643 | 16 ft | 0 kts | 0° |
| 2026-05-03 23:05 | 26.07601 | -80.16643 | 16 ft | 7 kts | 0° |
| 2026-05-03 23:05 | 26.07687 | -80.16624 | 15 ft | 15 kts | 47° |
| 2026-05-03 23:06 | 26.07695 | -80.16525 | 17 ft | 6 kts | 90° |
| 2026-05-03 23:06 | 26.07695 | -80.16519 | 17 ft | 7 kts | 90° |
| 2026-05-03 23:06 | 26.07694 | -80.16179 | 19 ft | 81 kts | 90° |
| 2026-05-03 23:06 | 26.07687 | -80.15307 | 12 ft | 141 kts | 91° |
| 2026-05-03 23:07 | 26.07680 | -80.14124 | 397 ft | 153 kts | 86° |
| 2026-05-03 23:07 | 26.07687 | -80.12936 | 978 ft | 157 kts | 86° |
| 2026-05-03 23:07 | 26.07704 | -80.11719 | 1664 ft | 157 kts | 86° |
| 2026-05-03 23:07 | 26.07795 | -80.10468 | 2106 ft | 174 kts | 77° |
| 2026-05-03 23:08 | 26.08150 | -80.09097 | 2502 ft | 195 kts | 66° |
| 2026-05-03 23:08 | 26.08811 | -80.07678 | 2880 ft | 220 kts | 47° |
| 2026-05-03 23:08 | 26.10107 | -80.06683 | 3406 ft | 238 kts | 19° |
| 2026-05-03 23:08 | 26.11749 | -80.06017 | 3843 ft | 265 kts | 17° |
| 2026-05-03 23:09 | 26.13538 | -80.05322 | 4030 ft | 276 kts | 16° |
| 2026-05-03 23:09 | 26.15423 | -80.04937 | 4644 ft | 277 kts | 355° |
| 2026-05-03 23:09 | 26.17288 | -80.05319 | 5668 ft | 271 kts | 337° |
| 2026-05-03 23:09 | 26.19090 | -80.06013 | 6581 ft | 276 kts | 337° |
| 2026-05-03 23:10 | 26.20904 | -80.06745 | 7474 ft | 277 kts | 330° |
| 2026-05-03 23:10 | 26.22406 | -80.07999 | 8323 ft | 273 kts | 306° |
| 2026-05-03 23:10 | 26.23306 | -80.09826 | 9268 ft | 270 kts | 289° |
| 2026-05-03 23:10 | 26.23993 | -80.11777 | 10172 ft | 272 kts | 288° |
| 2026-05-03 23:11 | 26.24458 | -80.13105 | 10538 ft | 283 kts | 288° |
| 2026-05-03 23:11 | 26.25219 | -80.15232 | 10832 ft | 308 kts | 291° |
| 2026-05-03 23:11 | 26.26277 | -80.17403 | 11223 ft | 326 kts | 300° |
| 2026-05-03 23:11 | 26.27518 | -80.19540 | 12024 ft | 329 kts | 299° |
| 2026-05-03 23:12 | 26.28756 | -80.21704 | 12820 ft | 333 kts | 299° |
| 2026-05-03 23:12 | 26.30002 | -80.23893 | 13637 ft | 336 kts | 298° |
| 2026-05-03 23:12 | 26.31260 | -80.26110 | 14360 ft | 340 kts | 298° |
| 2026-05-03 23:12 | 26.32530 | -80.28346 | 15072 ft | 343 kts | 298° |
| 2026-05-03 23:13 | 26.33808 | -80.30597 | 15800 ft | 345 kts | 298° |
| 2026-05-03 23:13 | 26.35098 | -80.32869 | 16502 ft | 348 kts | 298° |
| 2026-05-03 23:13 | 26.36400 | -80.35164 | 17175 ft | 351 kts | 297° |
| 2026-05-03 23:13 | 26.37695 | -80.37447 | 17831 ft | 354 kts | 297° |
| 2026-05-03 23:14 | 26.39018 | -80.39783 | 18467 ft | 357 kts | 297° |
| 2026-05-03 23:14 | 26.40349 | -80.42132 | 19030 ft | 360 kts | 297° |
| 2026-05-03 23:14 | 26.41694 | -80.44508 | 19635 ft | 363 kts | 297° |
| 2026-05-03 23:14 | 26.43046 | -80.46898 | 20217 ft | 365 kts | 297° |
| 2026-05-03 23:15 | 26.44404 | -80.49299 | 20774 ft | 368 kts | 296° |
| 2026-05-03 23:15 | 26.45776 | -80.51728 | 21327 ft | 371 kts | 296° |
| 2026-05-03 23:15 | 26.47264 | -80.54104 | 21880 ft | 379 kts | 304° |
| 2026-05-03 23:15 | 26.49259 | -80.56098 | 22410 ft | 395 kts | 318° |
| 2026-05-03 23:16 | 26.51766 | -80.57525 | 22888 ft | 414 kts | 333° |
| 2026-05-03 23:16 | 26.54560 | -80.58442 | 23385 ft | 421 kts | 336° |
| 2026-05-03 23:16 | 26.57392 | -80.59323 | 23844 ft | 425 kts | 336° |
| 2026-05-03 23:16 | 26.60251 | -80.60214 | 24287 ft | 427 kts | 336° |
| 2026-05-03 23:17 | 26.63121 | -80.61114 | 24738 ft | 429 kts | 336° |
| 2026-05-03 23:17 | 26.66018 | -80.62030 | 25169 ft | 432 kts | 335° |
| 2026-05-03 23:17 | 26.68874 | -80.62937 | 25587 ft | 434 kts | 335° |
| 2026-05-03 23:17 | 26.71800 | -80.63868 | 26010 ft | 437 kts | 335° |
| 2026-05-03 23:18 | 26.74739 | -80.64804 | 26420 ft | 439 kts | 335° |
| 2026-05-03 23:18 | 26.77685 | -80.65743 | 26849 ft | 442 kts | 335° |
| 2026-05-03 23:18 | 26.80654 | -80.66690 | 27260 ft | 444 kts | 335° |
| 2026-05-03 23:18 | 26.83636 | -80.67641 | 27649 ft | 447 kts | 335° |
| 2026-05-03 23:19 | 26.86645 | -80.68601 | 28088 ft | 449 kts | 335° |
| 2026-05-03 23:19 | 26.89673 | -80.69568 | 28434 ft | 453 kts | 335° |
| 2026-05-03 23:19 | 26.92668 | -80.70538 | 28808 ft | 454 kts | 334° |
| 2026-05-03 23:19 | 26.95667 | -80.71639 | 29172 ft | 454 kts | 332° |
| 2026-05-03 23:20 | 26.98659 | -80.72801 | 29516 ft | 456 kts | 332° |
| 2026-05-03 23:20 | 27.01659 | -80.73971 | 29862 ft | 458 kts | 332° |
| 2026-05-03 23:20 | 27.04680 | -80.75139 | 30032 ft | 460 kts | 332° |
| 2026-05-03 23:21 | 27.10753 | -80.77452 | 30048 ft | 460 kts | 332° |
| 2026-05-03 23:21 | 27.16830 | -80.79756 | 30049 ft | 460 kts | 332° |
| 2026-05-03 23:22 | 27.25929 | -80.83211 | 30045 ft | 461 kts | 332° |
| 2026-05-03 23:22 | 27.32004 | -80.85521 | 30045 ft | 461 kts | 332° |
| 2026-05-03 23:23 | 27.38032 | -80.87945 | 30046 ft | 459 kts | 330° |
| 2026-05-03 23:23 | 27.44016 | -80.90441 | 30059 ft | 459 kts | 330° |
| 2026-05-03 23:24 | 27.50008 | -80.92922 | 30059 ft | 458 kts | 331° |
| 2026-05-03 23:24 | 27.55992 | -80.95390 | 30059 ft | 458 kts | 331° |
| 2026-05-03 23:25 | 27.61988 | -80.97864 | 30059 ft | 458 kts | 331° |
| 2026-05-03 23:25 | 27.67973 | -81.00336 | 30058 ft | 458 kts | 331° |
| 2026-05-03 23:26 | 27.73957 | -81.02812 | 30058 ft | 458 kts | 331° |
| 2026-05-03 23:26 | 27.79897 | -81.05272 | 30060 ft | 459 kts | 330° |
| 2026-05-03 23:27 | 27.85898 | -81.07760 | 30059 ft | 459 kts | 330° |
| 2026-05-03 23:27 | 27.91912 | -81.10258 | 29941 ft | 467 kts | 331° |
| 2026-05-03 23:28 | 27.94989 | -81.11543 | 29674 ft | 472 kts | 331° |
| 2026-05-03 23:28 | 27.98064 | -81.12819 | 29403 ft | 469 kts | 331° |
| 2026-05-03 23:28 | 28.01089 | -81.14071 | 29145 ft | 466 kts | 331° |
| 2026-05-03 23:28 | 28.04126 | -81.15331 | 29072 ft | 465 kts | 331° |
| 2026-05-03 23:29 | 28.10316 | -81.17628 | 29089 ft | 470 kts | 334° |
| 2026-05-03 23:29 | 28.16553 | -81.19820 | 29090 ft | 469 kts | 334° |
| 2026-05-03 23:30 | 28.22776 | -81.22052 | 29093 ft | 468 kts | 333° |
| 2026-05-03 23:30 | 28.28989 | -81.24302 | 29082 ft | 468 kts | 333° |
| 2026-05-03 23:31 | 28.35196 | -81.26555 | 29078 ft | 468 kts | 333° |
| 2026-05-03 23:31 | 28.41395 | -81.28808 | 28839 ft | 466 kts | 333° |
| 2026-05-03 23:32 | 28.44467 | -81.29923 | 28574 ft | 461 kts | 333° |
| 2026-05-03 23:32 | 28.47522 | -81.31033 | 28315 ft | 460 kts | 333° |
| 2026-05-03 23:32 | 28.50568 | -81.32144 | 28067 ft | 459 kts | 333° |
| 2026-05-03 23:32 | 28.53661 | -81.33106 | 27807 ft | 464 kts | 340° |
| 2026-05-03 23:33 | 28.56868 | -81.33658 | 27557 ft | 470 kts | 347° |
| 2026-05-03 23:33 | 28.60099 | -81.33877 | 27318 ft | 471 kts | 348° |
| 2026-05-03 23:33 | 28.63362 | -81.34086 | 27061 ft | 469 kts | 348° |
| 2026-05-03 23:33 | 28.66616 | -81.34303 | 26812 ft | 467 kts | 348° |
| 2026-05-03 23:34 | 28.69853 | -81.34519 | 26614 ft | 465 kts | 348° |
| 2026-05-03 23:34 | 28.73072 | -81.34734 | 26369 ft | 463 kts | 348° |
| 2026-05-03 23:34 | 28.76289 | -81.34948 | 26124 ft | 462 kts | 348° |
| 2026-05-03 23:34 | 28.79495 | -81.35160 | 25883 ft | 460 kts | 348° |
| 2026-05-03 23:35 | 28.82683 | -81.35371 | 25648 ft | 458 kts | 348° |
| 2026-05-03 23:35 | 28.85863 | -81.35581 | 25427 ft | 456 kts | 348° |
| 2026-05-03 23:35 | 28.89031 | -81.35791 | 25195 ft | 455 kts | 349° |
| 2026-05-03 23:35 | 28.92185 | -81.36000 | 24964 ft | 453 kts | 349° |
| 2026-05-03 23:36 | 28.95332 | -81.36208 | 24736 ft | 452 kts | 349° |
| 2026-05-03 23:36 | 28.98472 | -81.36416 | 24538 ft | 450 kts | 349° |
| 2026-05-03 23:36 | 29.01535 | -81.36620 | 24377 ft | 443 kts | 349° |
| 2026-05-03 23:36 | 29.04576 | -81.36822 | 24264 ft | 430 kts | 348° |
| 2026-05-03 23:37 | 29.07519 | -81.37016 | 24081 ft | 418 kts | 348° |
| 2026-05-03 23:37 | 29.10393 | -81.37212 | 23797 ft | 411 kts | 348° |
| 2026-05-03 23:37 | 29.13250 | -81.37413 | 23551 ft | 413 kts | 348° |
| 2026-05-03 23:37 | 29.16137 | -81.37618 | 23282 ft | 414 kts | 348° |
| 2026-05-03 23:38 | 29.19010 | -81.37817 | 23024 ft | 412 kts | 348° |
| 2026-05-03 23:38 | 29.21867 | -81.38012 | 22762 ft | 410 kts | 348° |
| 2026-05-03 23:38 | 29.24712 | -81.38205 | 22503 ft | 408 kts | 348° |
| 2026-05-03 23:38 | 29.27550 | -81.38399 | 22276 ft | 407 kts | 348° |
| 2026-05-03 23:39 | 29.30375 | -81.38591 | 22031 ft | 406 kts | 349° |
| 2026-05-03 23:39 | 29.33193 | -81.38781 | 21778 ft | 405 kts | 349° |
| 2026-05-03 23:39 | 29.35995 | -81.38968 | 21523 ft | 403 kts | 349° |
| 2026-05-03 23:39 | 29.38761 | -81.39154 | 21282 ft | 402 kts | 349° |
| 2026-05-03 23:40 | 29.41545 | -81.39341 | 21048 ft | 400 kts | 349° |
| 2026-05-03 23:40 | 29.44321 | -81.39528 | 20794 ft | 399 kts | 349° |
| 2026-05-03 23:40 | 29.47091 | -81.39715 | 20552 ft | 398 kts | 349° |
| 2026-05-03 23:40 | 29.49851 | -81.39901 | 20305 ft | 396 kts | 349° |
| 2026-05-03 23:41 | 29.52611 | -81.40096 | 19800 ft | 396 kts | 347° |
| 2026-05-03 23:41 | 29.55228 | -81.40806 | 19356 ft | 377 kts | 330° |
| 2026-05-03 23:41 | 29.57437 | -81.42250 | 18956 ft | 358 kts | 315° |
| 2026-05-03 23:41 | 29.59223 | -81.44188 | 18429 ft | 351 kts | 307° |
| 2026-05-03 23:42 | 29.60924 | -81.46190 | 17882 ft | 348 kts | 308° |
| 2026-05-03 23:42 | 29.62605 | -81.48165 | 17399 ft | 344 kts | 308° |
| 2026-05-03 23:42 | 29.64272 | -81.50122 | 16899 ft | 340 kts | 308° |
| 2026-05-03 23:42 | 29.65902 | -81.52034 | 16414 ft | 337 kts | 308° |
| 2026-05-03 23:43 | 29.67539 | -81.53956 | 15929 ft | 334 kts | 308° |
| 2026-05-03 23:43 | 29.69164 | -81.55857 | 15459 ft | 331 kts | 308° |
| 2026-05-03 23:43 | 29.70782 | -81.57728 | 14996 ft | 329 kts | 308° |
| 2026-05-03 23:43 | 29.72388 | -81.59576 | 14550 ft | 325 kts | 309° |
| 2026-05-03 23:44 | 29.73983 | -81.61414 | 14110 ft | 322 kts | 309° |
| 2026-05-03 23:44 | 29.75584 | -81.63208 | 13618 ft | 323 kts | 314° |
| 2026-05-03 23:44 | 29.77529 | -81.64545 | 13167 ft | 330 kts | 332° |
| 2026-05-03 23:44 | 29.79805 | -81.65131 | 13028 ft | 343 kts | 349° |
| 2026-05-03 23:45 | 29.82195 | -81.65345 | 12997 ft | 344 kts | 349° |
| 2026-05-03 23:45 | 29.84582 | -81.65558 | 12985 ft | 343 kts | 349° |
| 2026-05-03 23:45 | 29.86951 | -81.65771 | 12812 ft | 340 kts | 350° |
| 2026-05-03 23:45 | 29.89306 | -81.65983 | 12422 ft | 338 kts | 350° |
| 2026-05-03 23:46 | 29.91640 | -81.66193 | 11973 ft | 335 kts | 351° |
| 2026-05-03 23:46 | 29.93892 | -81.66583 | 11559 ft | 325 kts | 337° |
| 2026-05-03 23:46 | 29.95995 | -81.67533 | 11139 ft | 325 kts | 333° |
| 2026-05-03 23:46 | 29.98072 | -81.68545 | 10741 ft | 323 kts | 333° |
| 2026-05-03 23:47 | 30.00127 | -81.69563 | 10340 ft | 319 kts | 333° |
| 2026-05-03 23:47 | 30.02156 | -81.70584 | 9933 ft | 315 kts | 333° |
| 2026-05-03 23:47 | 30.04160 | -81.71608 | 9493 ft | 315 kts | 333° |
| 2026-05-03 23:47 | 30.06161 | -81.72639 | 9056 ft | 313 kts | 333° |
| 2026-05-03 23:48 | 30.08143 | -81.73674 | 8584 ft | 312 kts | 333° |
| 2026-05-03 23:48 | 30.10102 | -81.74712 | 8155 ft | 308 kts | 333° |
| 2026-05-03 23:48 | 30.12038 | -81.75750 | 7737 ft | 305 kts | 333° |
| 2026-05-03 23:48 | 30.13957 | -81.76787 | 7330 ft | 302 kts | 333° |
| 2026-05-03 23:49 | 30.15856 | -81.77817 | 6932 ft | 301 kts | 333° |
| 2026-05-03 23:49 | 30.17728 | -81.78841 | 6517 ft | 301 kts | 333° |
| 2026-05-03 23:49 | 30.19620 | -81.79881 | 6075 ft | 300 kts | 333° |
| 2026-05-03 23:49 | 30.21497 | -81.80911 | 5648 ft | 296 kts | 333° |
| 2026-05-03 23:50 | 30.23349 | -81.81928 | 5222 ft | 293 kts | 333° |
| 2026-05-03 23:50 | 30.24550 | -81.82589 | 4975 ft | 292 kts | 333° |
| 2026-05-03 23:50 | 30.27014 | -81.83945 | 4388 ft | 291 kts | 333° |
| 2026-05-03 23:50 | 30.28846 | -81.84984 | 3964 ft | 297 kts | 333° |
| 2026-05-03 23:51 | 30.30693 | -81.86061 | 3522 ft | 297 kts | 333° |
| 2026-05-03 23:51 | 30.32523 | -81.87157 | 3144 ft | 296 kts | 333° |
| 2026-05-03 23:51 | 30.34311 | -81.88246 | 3003 ft | 284 kts | 333° |
| 2026-05-03 23:51 | 30.36001 | -81.89287 | 2986 ft | 266 kts | 333° |
| 2026-05-03 23:52 | 30.37577 | -81.90282 | 2981 ft | 250 kts | 333° |
| 2026-05-03 23:52 | 30.39054 | -81.91216 | 2982 ft | 233 kts | 333° |
| 2026-05-03 23:52 | 30.40433 | -81.92079 | 2989 ft | 225 kts | 333° |
| 2026-05-03 23:52 | 30.41824 | -81.92951 | 2995 ft | 229 kts | 333° |
| 2026-05-03 23:53 | 30.43207 | -81.93797 | 2997 ft | 228 kts | 335° |
| 2026-05-03 23:53 | 30.44610 | -81.94668 | 3002 ft | 226 kts | 333° |
| 2026-05-03 23:53 | 30.45994 | -81.95524 | 3008 ft | 225 kts | 333° |
| 2026-05-03 23:53 | 30.47400 | -81.96396 | 3018 ft | 231 kts | 333° |
| 2026-05-03 23:54 | 30.48807 | -81.97272 | 3017 ft | 228 kts | 333° |
| 2026-05-03 23:54 | 30.50197 | -81.98156 | 3025 ft | 229 kts | 333° |
| 2026-05-03 23:54 | 30.51142 | -81.98691 | 3031 ft | 227 kts | 345° |
| 2026-05-03 23:54 | 30.52668 | -81.98753 | 3045 ft | 221 kts | 19° |
| 2026-05-03 23:55 | 30.53940 | -81.97852 | 3041 ft | 213 kts | 53° |
| 2026-05-03 23:55 | 30.54521 | -81.96309 | 3042 ft | 213 kts | 87° |
| 2026-05-03 23:55 | 30.54227 | -81.94671 | 3026 ft | 207 kts | 121° |
| 2026-05-03 23:55 | 30.53162 | -81.93553 | 3028 ft | 215 kts | 154° |
| 2026-05-03 23:56 | 30.51717 | -81.93223 | 3016 ft | 217 kts | 173° |
| 2026-05-03 23:56 | 30.50205 | -81.93082 | 3014 ft | 218 kts | 173° |
| 2026-05-03 23:56 | 30.48699 | -81.92942 | 3012 ft | 214 kts | 173° |
| 2026-05-03 23:56 | 30.47197 | -81.92810 | 3010 ft | 218 kts | 173° |
| 2026-05-03 23:57 | 30.45696 | -81.92685 | 2997 ft | 214 kts | 169° |
| 2026-05-03 23:57 | 30.44429 | -81.91935 | 2877 ft | 203 kts | 128° |
| 2026-05-03 23:57 | 30.44014 | -81.90467 | 2780 ft | 190 kts | 85° |
| 2026-05-03 23:57 | 30.44263 | -81.89011 | 2729 ft | 178 kts | 77° |
| 2026-05-03 23:58 | 30.44574 | -81.87688 | 2649 ft | 163 kts | 76° |
| 2026-05-03 23:58 | 30.44868 | -81.86484 | 2568 ft | 146 kts | 76° |
| 2026-05-03 23:58 | 30.45128 | -81.85449 | 2511 ft | 126 kts | 76° |
| 2026-05-03 23:58 | 30.45378 | -81.84457 | 2461 ft | 129 kts | 76° |
| 2026-05-03 23:59 | 30.45638 | -81.83459 | 2365 ft | 130 kts | 76° |
| 2026-05-03 23:59 | 30.45900 | -81.82476 | 2227 ft | 130 kts | 75° |
| 2026-05-03 23:59 | 30.46166 | -81.81506 | 2077 ft | 125 kts | 74° |
| 2026-05-03 23:59 | 30.46439 | -81.80538 | 1911 ft | 128 kts | 74° |
| 2026-05-04 00:00 | 30.46719 | -81.79559 | 1739 ft | 128 kts | 74° |
| 2026-05-04 00:00 | 30.46992 | -81.78601 | 1573 ft | 124 kts | 74° |
| 2026-05-04 00:00 | 30.47283 | -81.77643 | 1410 ft | 127 kts | 73° |
| 2026-05-04 00:00 | 30.47576 | -81.76681 | 1245 ft | 126 kts | 74° |
| 2026-05-04 00:01 | 30.47865 | -81.75737 | 1075 ft | 124 kts | 72° |
| 2026-05-04 00:01 | 30.48156 | -81.74785 | 914 ft | 126 kts | 72° |
| 2026-05-04 00:01 | 30.48448 | -81.73830 | 743 ft | 123 kts | 75° |
| 2026-05-04 00:01 | 30.48738 | -81.72890 | 597 ft | 124 kts | 71° |
| 2026-05-04 00:02 | 30.49030 | -81.71944 | 372 ft | 120 kts | 72° |
| 2026-05-04 00:02 | 30.49306 | -81.71038 | 220 ft | 125 kts | 72° |
| 2026-05-04 00:02 | 30.49594 | -81.70089 | 102 ft | 125 kts | 72° |
| 2026-05-04 00:02 | 30.49878 | -81.69161 | 40 ft | 108 kts | 71° |
| 2026-05-04 00:03 | 30.50029 | -81.68670 | 35 ft | 30 kts | 70° |
| 2026-05-04 00:03 | 30.50020 | -81.68533 | 38 ft | 1 kts | 112° |
| 2026-05-04 00:03 | 30.50007 | -81.68501 | 38 ft | 9 kts | 119° |
| 2026-05-04 00:03 | 30.49944 | -81.68447 | 36 ft | 12 kts | 161° |
| 2026-05-04 00:04 | 30.49848 | -81.68454 | 36 ft | 15 kts | 193° |
| 2026-05-04 00:04 | 30.49744 | -81.68476 | 35 ft | 16 kts | 190° |
| 2026-05-04 00:04 | 30.49629 | -81.68501 | 36 ft | 15 kts | 191° |
| 2026-05-04 00:04 | 30.49527 | -81.68523 | 37 ft | 15 kts | 191° |
| 2026-05-04 00:05 | 30.49444 | -81.68538 | 39 ft | 10 kts | 196° |
| 2026-05-04 00:05 | 30.49410 | -81.68551 | 39 ft | 1 kts | 200° |
| 2026-05-04 00:05 | 30.49410 | -81.68552 | 39 ft | 0 kts | 200° |